Time;durP1;ratioP1;P1;durP2;ratioP2;P2;SDS_P1;SDS_P2;PMS_P1;PMS_P2;Temp;Humidity;BMP_temperature;BMP_pressure;BME280_temperature;BME280_humidity;BME280_pressure;Samples;Min_cycle;Max_cycle;Signal;HPM_P1;HPM_P2
2023/10/29 00:01:49;;;;;;;4.53;2.75;;;12.00;1.00;;;;;;7380723;19;20044;-69
2023/10/29 00:04:22;;;;;;;6.15;2.30;;;12.10;1.00;;;;;;7379010;19;20468;-69
2023/10/29 00:06:52;;;;;;;6.18;2.40;;;12.10;1.00;;;;;;7380001;19;20030;-71
2023/10/29 00:09:22;;;;;;;5.50;3.03;;;12.00;1.00;;;;;;7382022;19;20040;-70
2023/10/29 00:11:52;;;;;;;6.40;2.45;;;12.10;1.00;;;;;;7380851;19;20017;-70
2023/10/29 00:14:21;;;;;;;4.78;2.53;;;12.00;1.00;;;;;;7378325;19;20792;-70
2023/10/29 00:16:51;;;;;;;4.28;2.60;;;12.00;1.00;;;;;;7381571;19;20021;-70
2023/10/29 00:19:24;;;;;;;7.07;3.40;;;12.00;1.00;;;;;;7380236;19;20019;-71
2023/10/29 00:21:54;;;;;;;3.50;2.80;;;12.00;1.00;;;;;;7380519;19;20014;-70
2023/10/29 00:24:24;;;;;;;6.72;2.60;;;12.00;1.00;;;;;;7379830;19;20093;-70
2023/10/29 00:26:54;;;;;;;7.72;3.20;;;12.00;1.00;;;;;;7379849;19;20459;-70
2023/10/29 00:29:24;;;;;;;5.05;2.83;;;11.90;1.00;;;;;;7378945;19;20032;-70
2023/10/29 00:31:54;;;;;;;5.50;2.70;;;11.90;1.00;;;;;;7380020;19;20037;-71
2023/10/29 00:34:26;;;;;;;4.68;2.72;;;11.90;1.00;;;;;;7379395;19;20082;-71
2023/10/29 00:36:56;;;;;;;4.43;2.60;;;11.90;1.00;;;;;;7380038;19;20018;-71
2023/10/29 00:39:26;;;;;;;4.78;2.97;;;11.90;1.00;;;;;;7380476;19;20002;-71
2023/10/29 00:41:56;;;;;;;5.72;2.75;;;11.90;1.00;;;;;;7380658;19;20016;-71
2023/10/29 00:44:26;;;;;;;5.75;2.75;;;11.90;1.00;;;;;;7378669;19;20368;-71
2023/10/29 00:46:57;;;;;;;5.47;2.88;;;11.90;1.00;;;;;;7378476;19;20002;-71
2023/10/29 00:49:29;;;;;;;4.57;2.70;;;11.90;1.00;;;;;;7379318;19;20027;-70
2023/10/29 00:51:59;;;;;;;3.97;2.55;;;11.80;1.00;;;;;;7378842;19;20081;-70
2023/10/29 00:54:29;;;;;;;8.00;2.80;;;11.80;1.00;;;;;;7375104;19;20078;-70
2023/10/29 00:56:59;;;;;;;5.07;2.70;;;11.90;1.00;;;;;;7375758;19;20018;-69
2023/10/29 00:59:33;;;;;;;5.45;2.30;;;12.00;1.00;;;;;;7380706;19;20078;-70
2023/10/29 01:02:03;;;;;;;5.07;2.30;;;12.00;1.00;;;;;;7378741;19;20040;-71
2023/10/29 01:04:38;;;;;;;3.67;2.13;;;12.00;1.00;;;;;;7372818;19;20381;-71
2023/10/29 01:07:08;;;;;;;3.10;2.03;;;12.00;1.00;;;;;;7376068;19;20014;-71
2023/10/29 01:09:40;;;;;;;4.03;2.70;;;12.00;1.00;;;;;;7378227;19;20018;-71
2023/10/29 01:12:17;;;;;;;6.25;2.40;;;12.00;1.00;;;;;;7377990;19;20073;-71
2023/10/29 01:14:47;;;;;;;5.97;2.80;;;12.00;1.00;;;;;;7379486;19;20042;-71
2023/10/29 01:17:18;;;;;;;5.15;2.45;;;11.90;1.00;;;;;;7379411;19;20030;-70
2023/10/29 01:19:51;;;;;;;4.75;2.47;;;11.90;1.00;;;;;;7378728;19;20754;-70
2023/10/29 01:22:22;;;;;;;4.43;2.50;;;12.00;1.00;;;;;;7378203;19;20426;-70
2023/10/29 01:24:52;;;;;;;6.88;2.47;;;11.90;1.00;;;;;;7378591;19;20015;-70
2023/10/29 01:27:21;;;;;;;4.53;2.15;;;11.90;1.00;;;;;;7375146;19;20017;-70
2023/10/29 01:29:54;;;;;;;5.53;2.40;;;11.90;1.00;;;;;;7376870;19;20493;-70
2023/10/29 01:32:24;;;;;;;5.68;2.75;;;11.90;1.00;;;;;;7378142;19;20033;-70
2023/10/29 01:34:57;;;;;;;4.53;2.78;;;11.80;1.00;;;;;;7379606;19;20096;-70
2023/10/29 01:37:27;;;;;;;5.28;2.83;;;11.70;1.00;;;;;;7376089;19;20109;-70
2023/10/29 01:39:57;;;;;;;5.47;2.90;;;11.60;1.00;;;;;;7376597;19;20009;-70
2023/10/29 01:42:27;;;;;;;9.40;3.10;;;11.70;1.00;;;;;;7376828;19;20017;-70
2023/10/29 01:44:57;;;;;;;3.15;2.30;;;11.70;1.00;;;;;;7376650;19;20010;-70
2023/10/29 01:47:27;;;;;;;6.63;2.83;;;11.60;1.00;;;;;;7376629;19;20018;-70
2023/10/29 01:50:00;;;;;;;4.45;2.58;;;11.60;1.00;;;;;;7377490;19;20684;-70
2023/10/29 01:52:30;;;;;;;4.78;3.05;;;11.60;1.00;;;;;;7377538;19;20029;-71
2023/10/29 01:55:00;;;;;;;7.28;3.00;;;11.70;1.00;;;;;;7375039;19;20014;-70
2023/10/29 01:57:30;;;;;;;7.22;2.70;;;11.60;1.00;;;;;;7379435;19;20010;-70
2023/10/29 02:00:03;;;;;;;4.78;2.60;;;11.60;1.00;;;;;;7379030;19;20358;-70
2023/10/29 02:02:33;;;;;;;5.47;2.42;;;11.50;1.00;;;;;;7376979;19;20534;-70
2023/10/29 02:05:07;;;;;;;5.60;2.53;;;11.40;1.00;;;;;;7371668;19;20010;-70
2023/10/29 02:07:37;;;;;;;4.07;2.03;;;11.40;1.00;;;;;;7373861;19;20018;-70
2023/10/29 02:10:08;;;;;;;5.50;2.28;;;11.40;1.00;;;;;;7376074;19;20094;-70
2023/10/29 02:12:40;;;;;;;5.18;2.15;;;11.40;1.00;;;;;;7374569;19;20078;-71
2023/10/29 02:15:11;;;;;;;3.65;2.05;;;11.50;1.00;;;;;;7376300;19;20010;-71
2023/10/29 02:17:40;;;;;;;5.88;2.10;;;11.40;1.00;;;;;;7376717;19;20010;-71
2023/10/29 02:20:13;;;;;;;4.00;2.10;;;11.40;1.00;;;;;;7375053;19;20017;-71
2023/10/29 02:22:46;;;;;;;4.53;2.17;;;11.40;1.00;;;;;;7375328;19;20010;-71
2023/10/29 02:25:16;;;;;;;4.35;2.20;;;11.50;1.00;;;;;;7375328;19;20003;-71
2023/10/29 02:27:46;;;;;;;4.28;1.95;;;11.50;1.00;;;;;;7375789;19;20017;-72
2023/10/29 02:30:16;;;;;;;3.10;1.80;;;11.60;1.00;;;;;;7375479;19;20010;-70
2023/10/29 02:32:47;;;;;;;3.83;2.17;;;11.70;1.00;;;;;;7372870;19;20010;-71
2023/10/29 02:35:18;;;;;;;3.40;1.90;;;11.70;1.00;;;;;;7375425;19;20462;-71
2023/10/29 02:37:50;;;;;;;3.00;1.85;;;11.70;1.00;;;;;;7377250;19;19998;-71
2023/10/29 02:40:20;;;;;;;3.80;2.03;;;11.70;1.00;;;;;;7383271;19;20011;-71
2023/10/29 02:42:50;;;;;;;4.30;1.95;;;11.60;1.00;;;;;;7382562;19;20011;-70
2023/10/29 02:45:20;;;;;;;5.90;1.90;;;11.60;1.00;;;;;;7382049;19;20045;-71
2023/10/29 02:47:50;;;;;;;6.75;1.73;;;11.60;1.00;;;;;;7382790;19;20015;-70
2023/10/29 02:50:20;;;;;;;4.82;1.65;;;11.70;1.00;;;;;;7383010;19;20081;-70
2023/10/29 02:52:52;;;;;;;7.47;2.10;;;11.80;1.00;;;;;;7379622;19;20423;-70
2023/10/29 02:55:22;;;;;;;6.00;1.45;;;11.80;1.00;;;;;;7382030;19;20843;-69
2023/10/29 02:57:52;;;;;;;3.13;1.60;;;11.80;1.00;;;;;;7382828;19;20018;-70
2023/10/29 03:00:23;;;;;;;2.58;1.50;;;11.80;1.00;;;;;;7381374;19;20073;-70
2023/10/29 03:02:52;;;;;;;5.00;1.77;;;11.90;1.00;;;;;;7382331;19;20025;-70
2023/10/29 03:05:23;;;;;;;4.53;1.70;;;11.90;1.00;;;;;;7382300;19;20459;-70
2023/10/29 03:07:56;;;;;;;2.30;1.38;;;11.90;1.00;;;;;;7382192;19;20028;-70
2023/10/29 03:10:26;;;;;;;4.07;1.65;;;11.80;1.00;;;;;;7382449;19;20082;-70
2023/10/29 03:12:56;;;;;;;5.35;1.65;;;11.90;1.00;;;;;;7380498;19;20003;-71
2023/10/29 03:15:26;;;;;;;4.43;1.42;;;11.90;1.00;;;;;;7381543;19;20014;-70
2023/10/29 03:17:56;;;;;;;2.28;1.50;;;12.00;1.00;;;;;;7382964;19;20011;-70
2023/10/29 03:20:26;;;;;;;4.03;1.60;;;12.00;1.00;;;;;;7381955;19;20010;-71
2023/10/29 03:22:58;;;;;;;2.90;1.55;;;12.00;1.00;;;;;;7377974;19;20080;-71
2023/10/29 03:25:28;;;;;;;3.00;1.45;;;12.10;1.00;;;;;;7381781;19;20198;-71
2023/10/29 03:27:59;;;;;;;4.32;1.02;;;12.20;1.00;;;;;;7380626;19;20534;-70
2023/10/29 03:30:29;;;;;;;1.40;1.02;;;12.20;1.00;;;;;;7382869;19;20043;-70
2023/10/29 03:33:00;;;;;;;1.58;1.20;;;12.30;1.00;;;;;;7381523;19;20118;-70
2023/10/29 03:35:30;;;;;;;2.92;0.98;;;12.30;1.00;;;;;;7381699;19;20018;-70
2023/10/29 03:38:02;;;;;;;2.50;1.15;;;12.20;1.00;;;;;;7381240;19;20011;-71
2023/10/29 03:40:32;;;;;;;4.50;2.03;;;12.20;1.00;;;;;;7381456;19;20032;-71
2023/10/29 03:43:02;;;;;;;2.97;1.35;;;12.20;1.00;;;;;;7381958;19;20021;-71
2023/10/29 03:45:32;;;;;;;3.30;1.40;;;12.10;1.00;;;;;;7380587;19;20405;-71
2023/10/29 03:48:02;;;;;;;2.33;1.48;;;12.10;1.00;;;;;;7380694;19;20041;-71
2023/10/29 03:50:32;;;;;;;3.08;1.52;;;12.10;1.00;;;;;;7380252;19;20002;-71
2023/10/29 03:53:04;;;;;;;3.75;1.67;;;12.00;1.00;;;;;;7380700;19;20027;-70
2023/10/29 03:55:34;;;;;;;2.45;1.20;;;12.00;1.00;;;;;;7380982;19;20409;-71
2023/10/29 03:58:04;;;;;;;3.65;1.15;;;12.00;1.00;;;;;;7380127;19;20006;-71
2023/10/29 04:00:34;;;;;;;2.35;1.10;;;12.10;1.00;;;;;;7380214;19;20011;-71
2023/10/29 04:03:04;;;;;;;3.03;1.35;;;12.10;1.00;;;;;;7380601;19;20014;-71
2023/10/29 04:05:37;;;;;;;2.35;1.10;;;12.10;1.00;;;;;;7380515;19;20010;-70
2023/10/29 04:08:09;;;;;;;2.63;1.13;;;12.20;1.00;;;;;;7381391;19;20416;-71
2023/10/29 04:10:39;;;;;;;1.95;1.25;;;12.30;1.00;;;;;;7377912;19;20027;-71
2023/10/29 04:13:12;;;;;;;3.85;1.45;;;12.30;1.00;;;;;;7375831;19;20010;-70
2023/10/29 04:15:42;;;;;;;2.20;1.10;;;12.40;1.00;;;;;;7377825;19;20013;-71
2023/10/29 04:18:12;;;;;;;4.03;1.08;;;12.40;1.00;;;;;;7378602;19;20022;-71
2023/10/29 04:20:42;;;;;;;3.45;1.20;;;12.50;1.00;;;;;;7380027;19;20014;-72
2023/10/29 04:23:15;;;;;;;2.95;1.08;;;12.40;1.00;;;;;;7379077;19;20030;-71
2023/10/29 04:25:45;;;;;;;2.55;1.20;;;12.50;1.00;;;;;;7380894;19;20011;-71
2023/10/29 04:28:15;;;;;;;1.40;0.75;;;12.50;1.00;;;;;;7379541;19;20020;-70
2023/10/29 04:30:45;;;;;;;1.85;1.02;;;12.60;1.00;;;;;;7381096;19;20017;-71
2023/10/29 04:33:15;;;;;;;2.15;1.00;;;12.60;1.00;;;;;;7377020;19;20352;-71
2023/10/29 04:35:45;;;;;;;3.47;1.13;;;12.80;1.00;;;;;;7378372;19;20514;-70
2023/10/29 04:38:17;;;;;;;2.63;1.20;;;12.70;1.00;;;;;;7378350;19;20014;-71
2023/10/29 04:40:47;;;;;;;4.03;0.98;;;12.60;1.00;;;;;;7379070;19;20010;-71
2023/10/29 04:43:18;;;;;;;3.47;0.90;;;12.60;1.00;;;;;;7377074;19;20021;-71
2023/10/29 04:45:48;;;;;;;2.53;1.00;;;12.50;1.00;;;;;;7377121;19;20497;-71
2023/10/29 04:48:18;;;;;;;2.17;1.00;;;12.40;1.00;;;;;;7377709;19;20026;-71
2023/10/29 04:50:48;;;;;;;4.10;1.23;;;12.40;1.00;;;;;;7376594;19;20534;-70
2023/10/29 04:53:21;;;;;;;1.83;0.93;;;12.40;1.00;;;;;;7375861;19;20078;-71
2023/10/29 04:55:51;;;;;;;2.28;1.05;;;12.40;1.00;;;;;;7376665;19;20386;-71
2023/10/29 04:58:21;;;;;;;3.63;1.30;;;12.30;1.00;;;;;;7376080;19;20018;-71
2023/10/29 05:00:51;;;;;;;1.38;0.90;;;12.30;1.00;;;;;;7374283;19;20006;-71
2023/10/29 05:03:20;;;;;;;3.53;0.95;;;12.40;1.00;;;;;;7375089;19;20021;-71
2023/10/29 05:05:51;;;;;;;2.35;1.13;;;12.40;1.00;;;;;;7375379;19;20030;-71
2023/10/29 05:08:23;;;;;;;2.83;1.13;;;12.40;1.00;;;;;;7376249;19;20744;-71
2023/10/29 05:10:53;;;;;;;2.25;0.93;;;12.40;1.00;;;;;;7375918;19;20039;-71
2023/10/29 05:13:23;;;;;;;1.50;0.90;;;12.40;1.00;;;;;;7374625;19;20053;-71
2023/10/29 05:15:53;;;;;;;2.10;1.02;;;12.40;1.00;;;;;;7375897;19;20090;-71
2023/10/29 05:18:23;;;;;;;2.03;0.85;;;12.40;1.00;;;;;;7374936;19;20013;-71
2023/10/29 05:20:53;;;;;;;2.38;0.90;;;12.40;1.00;;;;;;7375737;19;20006;-71
2023/10/29 05:23:26;;;;;;;1.90;1.08;;;12.40;1.00;;;;;;7372154;19;20035;-71
2023/10/29 05:25:57;;;;;;;1.73;1.10;;;12.30;1.00;;;;;;7377670;19;20049;-71
2023/10/29 05:28:27;;;;;;;3.60;1.00;;;12.30;1.00;;;;;;7374646;19;20390;-71
2023/10/29 05:30:57;;;;;;;1.50;1.10;;;12.30;1.00;;;;;;7374548;19;20413;-71
2023/10/29 05:33:27;;;;;;;2.05;1.10;;;12.20;1.00;;;;;;7372421;19;20039;-71
2023/10/29 05:35:58;;;;;;;1.92;1.08;;;12.20;1.00;;;;;;7375380;19;20039;-71
2023/10/29 05:38:30;;;;;;;1.80;1.10;;;12.20;1.00;;;;;;7374877;19;20021;-71
2023/10/29 05:41:00;;;;;;;3.78;1.20;;;12.10;1.00;;;;;;7376398;19;20039;-70
2023/10/29 05:43:30;;;;;;;5.68;1.23;;;12.10;1.00;;;;;;7374254;19;20014;-70
2023/10/29 05:46:00;;;;;;;2.85;1.17;;;12.20;1.00;;;;;;7375651;19;20093;-71
2023/10/29 05:48:30;;;;;;;1.98;1.10;;;12.20;1.00;;;;;;7375229;19;20053;-72
2023/10/29 05:51:00;;;;;;;2.20;1.10;;;12.20;1.00;;;;;;7374105;19;20011;-71
2023/10/29 05:53:33;;;;;;;1.55;1.10;;;12.30;1.00;;;;;;7372888;19;20014;-71
2023/10/29 05:56:04;;;;;;;1.40;0.88;;;12.30;1.00;;;;;;7374736;19;20462;-72
2023/10/29 05:58:34;;;;;;;3.50;1.15;;;12.30;1.00;;;;;;7374143;19;20488;-71
2023/10/29 06:01:04;;;;;;;2.13;1.00;;;12.30;1.00;;;;;;7374919;19;20030;-71
2023/10/29 06:03:34;;;;;;;1.38;1.00;;;12.30;1.00;;;;;;7372975;19;20044;-72
2023/10/29 06:06:06;;;;;;;1.17;0.95;;;12.20;1.00;;;;;;7373385;19;20037;-71
2023/10/29 06:08:38;;;;;;;2.70;1.23;;;12.20;1.00;;;;;;7373112;19;20010;-70
2023/10/29 06:11:08;;;;;;;1.80;1.00;;;12.30;1.00;;;;;;7375335;19;20018;-70
2023/10/29 06:13:38;;;;;;;6.93;1.08;;;12.30;1.00;;;;;;7373618;19;20014;-71
2023/10/29 06:16:12;;;;;;;2.17;1.13;;;12.30;1.00;;;;;;7380736;19;20089;-71
2023/10/29 06:18:42;;;;;;;2.92;1.30;;;12.30;1.00;;;;;;7381151;19;20374;-71
2023/10/29 06:21:12;;;;;;;2.50;1.52;;;12.30;1.00;;;;;;7381762;19;20322;-70
2023/10/29 06:23:45;;;;;;;3.03;1.55;;;12.20;1.00;;;;;;7379771;19;20017;-70
2023/10/29 06:26:15;;;;;;;2.33;1.70;;;12.20;1.00;;;;;;7378131;19;20014;-72
2023/10/29 06:28:45;;;;;;;3.15;1.50;;;12.20;1.00;;;;;;7380230;19;20037;-71
2023/10/29 06:31:15;;;;;;;3.95;1.73;;;12.20;1.00;;;;;;7380185;19;20044;-70
2023/10/29 06:33:45;;;;;;;3.28;1.30;;;12.10;1.00;;;;;;7378964;19;20072;-71
2023/10/29 06:36:15;;;;;;;4.65;1.58;;;12.10;1.00;;;;;;7381355;19;20155;-70
2023/10/29 06:38:48;;;;;;;4.40;1.40;;;12.20;1.00;;;;;;7381635;19;20022;-70
2023/10/29 06:41:21;;;;;;;4.82;1.05;;;12.20;1.00;;;;;;7379956;19;20436;-70
2023/10/29 06:43:51;;;;;;;4.97;1.55;;;12.30;1.00;;;;;;7379405;19;20014;-70
2023/10/29 06:46:21;;;;;;;3.78;1.42;;;12.30;1.00;;;;;;7379791;19;20011;-70
2023/10/29 06:48:51;;;;;;;2.13;1.38;;;12.30;1.00;;;;;;7381292;19;20014;-71
2023/10/29 06:51:21;;;;;;;5.45;1.50;;;12.20;1.00;;;;;;7380068;19;20014;-70
2023/10/29 06:53:54;;;;;;;3.53;1.30;;;12.20;1.00;;;;;;7380419;19;20010;-70
2023/10/29 06:56:25;;;;;;;2.88;1.60;;;12.20;1.00;;;;;;7380566;19;20089;-70
2023/10/29 06:58:55;;;;;;;3.28;1.45;;;12.20;1.00;;;;;;7381401;19;20011;-71
2023/10/29 07:01:25;;;;;;;2.38;1.35;;;12.30;1.00;;;;;;7379837;19;20014;-71
2023/10/29 07:03:55;;;;;;;2.97;1.10;;;12.20;1.00;;;;;;7380156;19;20027;-71
2023/10/29 07:06:26;;;;;;;2.30;1.20;;;12.20;1.00;;;;;;7379034;19;20014;-70
2023/10/29 07:08:58;;;;;;;1.73;1.10;;;12.30;1.00;;;;;;7379003;19;20585;-70
2023/10/29 07:11:29;;;;;;;2.17;1.13;;;12.30;1.00;;;;;;7378746;19;20024;-70
2023/10/29 07:13:59;;;;;;;2.95;1.20;;;12.30;1.00;;;;;;7377182;19;20021;-70
2023/10/29 07:16:29;;;;;;;2.75;1.27;;;12.40;1.00;;;;;;7378686;19;20015;-70
2023/10/29 07:18:58;;;;;;;2.58;1.42;;;12.30;1.00;;;;;;7380453;19;20030;-70
2023/10/29 07:21:29;;;;;;;2.17;1.20;;;12.40;1.00;;;;;;7374697;19;20502;-71
2023/10/29 07:24:04;;;;;;;2.05;1.30;;;12.40;1.00;;;;;;7375161;19;20078;-70
2023/10/29 07:26:33;;;;;;;;;;;12.50;1.00;;;;;;7380460;19;20009;-71
2023/10/29 07:29:04;;;;;;;3.13;1.60;;;12.50;1.00;;;;;;7381412;19;20367;-71
2023/10/29 07:31:34;;;;;;;1.88;1.30;;;12.50;1.00;;;;;;7379428;19;20376;-70
2023/10/29 07:34:04;;;;;;;3.15;1.48;;;12.50;1.00;;;;;;7376975;19;20018;-71
2023/10/29 07:36:34;;;;;;;2.72;1.48;;;12.50;1.00;;;;;;7378805;19;20049;-71
2023/10/29 07:39:06;;;;;;;2.67;1.52;;;12.60;1.00;;;;;;7377955;19;20558;-71
2023/10/29 07:41:36;;;;;;;4.32;1.52;;;12.70;1.00;;;;;;7377339;19;20038;-71
2023/10/29 07:44:06;;;;;;;6.30;1.92;;;12.70;1.00;;;;;;7377071;19;20063;-71
2023/10/29 07:46:36;;;;;;;2.47;1.88;;;12.90;1.00;;;;;;7379068;19;20027;-71
2023/10/29 07:49:06;;;;;;;3.17;1.67;;;13.00;1.00;;;;;;7378997;19;20755;-71
2023/10/29 07:51:37;;;;;;;4.30;1.10;;;13.00;1.00;;;;;;7378208;19;20089;-70
2023/10/29 07:54:09;;;;;;;2.38;1.35;;;13.10;1.00;;;;;;7378342;19;20086;-71
2023/10/29 07:56:39;;;;;;;3.78;1.27;;;13.20;1.00;;;;;;7378610;19;20011;-70
2023/10/29 07:59:10;;;;;;;1.92;1.02;;;13.40;1.00;;;;;;7378295;19;20014;-71
2023/10/29 08:01:40;;;;;;;2.17;1.17;;;13.50;1.00;;;;;;7377338;19;20033;-71
2023/10/29 08:04:10;;;;;;;2.30;1.10;;;13.60;1.00;;;;;;7377523;19;20034;-71
2023/10/29 08:06:40;;;;;;;2.00;1.30;;;13.60;1.00;;;;;;7378728;19;20566;-71
2023/10/29 08:09:12;;;;;;;2.47;0.90;;;13.70;1.00;;;;;;7378595;19;20006;-74
2023/10/29 08:11:46;;;;;;;1.88;1.20;;;13.80;1.00;;;;;;7377844;19;20011;-71
2023/10/29 08:14:16;;;;;;;3.63;1.20;;;13.90;1.00;;;;;;7375525;19;20011;-71
2023/10/29 08:16:46;;;;;;;2.83;1.10;;;14.00;1.00;;;;;;7379634;19;20045;-70
2023/10/29 08:19:16;;;;;;;3.05;1.33;;;14.00;1.00;;;;;;7379473;19;20022;-71
2023/10/29 08:21:46;;;;;;;3.47;1.60;;;14.00;1.00;;;;;;7378147;19;20501;-72
2023/10/29 08:24:18;;;;;;;2.22;1.27;;;14.00;1.00;;;;;;7375962;19;20011;-71
2023/10/29 08:26:48;;;;;;;5.05;1.60;;;14.00;1.00;;;;;;7374178;19;20035;-71
2023/10/29 08:29:19;;;;;;;1.27;1.05;;;14.00;1.00;;;;;;7376804;19;20366;-71
2023/10/29 08:31:49;;;;;;;1.65;1.30;;;14.00;1.00;;;;;;7375858;19;20113;-71
2023/10/29 08:34:19;;;;;;;2.22;1.23;;;14.00;1.00;;;;;;7374827;19;20082;-71
2023/10/29 08:36:49;;;;;;;2.67;1.42;;;14.00;1.00;;;;;;7376819;19;20435;-71
2023/10/29 08:39:22;;;;;;;2.67;1.25;;;14.00;1.00;;;;;;7375412;19;20010;-72
2023/10/29 08:41:52;;;;;;;2.35;1.00;;;14.00;1.00;;;;;;7376198;19;20019;-70
2023/10/29 08:44:22;;;;;;;2.13;1.17;;;14.00;1.00;;;;;;7375053;19;20014;-71
2023/10/29 08:46:52;;;;;;;1.77;1.27;;;14.00;1.00;;;;;;7376532;19;20539;-71
2023/10/29 08:49:22;;;;;;;1.45;1.00;;;14.00;1.00;;;;;;7376251;19;20393;-71
2023/10/29 08:51:52;;;;;;;3.08;0.98;;;14.10;1.00;;;;;;7375081;19;20017;-71
2023/10/29 08:54:25;;;;;;;3.22;1.30;;;14.10;1.00;;;;;;7375527;19;20504;-71
2023/10/29 08:56:55;;;;;;;2.38;1.27;;;14.10;1.00;;;;;;7377260;19;20018;-71
2023/10/29 08:59:25;;;;;;;2.10;1.23;;;14.10;1.00;;;;;;7375136;19;20542;-71
2023/10/29 09:01:55;;;;;;;3.08;1.40;;;14.10;1.00;;;;;;7376616;19;20014;-71
2023/10/29 09:04:26;;;;;;;2.72;1.45;;;14.00;1.00;;;;;;7373583;19;20088;-71
2023/10/29 09:06:56;;;;;;;2.88;1.20;;;14.00;1.00;;;;;;7375929;19;20014;-71
2023/10/29 09:09:28;;;;;;;2.95;1.27;;;14.10;1.00;;;;;;7373602;19;20015;-71
2023/10/29 09:11:58;;;;;;;2.33;1.23;;;14.00;1.00;;;;;;7374906;19;20520;-71
2023/10/29 09:14:28;;;;;;;1.90;1.35;;;14.00;1.00;;;;;;7374305;19;20395;-71
2023/10/29 09:16:58;;;;;;;5.78;1.30;;;14.00;1.00;;;;;;7375058;19;20854;-71
2023/10/29 09:19:29;;;;;;;4.95;1.73;;;14.10;1.00;;;;;;7374848;19;20103;-71
2023/10/29 09:21:58;;;;;;;3.58;1.85;;;14.20;1.00;;;;;;7375007;19;20011;-71
2023/10/29 09:24:31;;;;;;;2.22;1.60;;;14.30;1.00;;;;;;7374805;19;20864;-70
2023/10/29 09:27:01;;;;;;;3.40;1.65;;;14.30;1.00;;;;;;7374828;19;20385;-71
2023/10/29 09:29:33;;;;;;;3.15;1.60;;;14.30;1.00;;;;;;7374337;19;20389;-71
2023/10/29 09:32:04;;;;;;;3.55;1.35;;;14.30;1.00;;;;;;7376046;19;20031;-71
2023/10/29 09:34:34;;;;;;;2.95;1.40;;;14.30;1.00;;;;;;7373807;19;20021;-71
2023/10/29 09:37:04;;;;;;;2.58;1.42;;;14.30;1.00;;;;;;7375155;19;20011;-71
2023/10/29 09:39:37;;;;;;;3.92;1.63;;;14.30;1.00;;;;;;7373800;19;20010;-71
2023/10/29 09:42:11;;;;;;;6.55;1.70;;;14.30;1.00;;;;;;7375209;19;20034;-71
2023/10/29 09:44:43;;;;;;;2.45;1.48;;;14.30;1.00;;;;;;7374850;19;20026;-71
2023/10/29 09:47:17;;;;;;;1.70;1.30;;;14.30;1.00;;;;;;7371435;19;20017;-70
2023/10/29 09:49:47;;;;;;;3.55;1.30;;;14.20;1.00;;;;;;7375166;19;20087;-70
2023/10/29 09:52:19;;;;;;;2.88;1.42;;;14.10;1.00;;;;;;7374196;19;20011;-70
2023/10/29 09:54:52;;;;;;;3.00;1.65;;;13.90;1.00;;;;;;7376344;19;20011;-70
2023/10/29 09:57:22;;;;;;;4.47;1.93;;;13.90;1.00;;;;;;7373513;19;20006;-71
2023/10/29 09:59:52;;;;;;;2.53;1.60;;;14.00;1.00;;;;;;7375608;19;20018;-71
2023/10/29 10:02:23;;;;;;;2.97;1.63;;;13.90;1.00;;;;;;7372942;19;20024;-71
2023/10/29 10:04:53;;;;;;;3.60;1.65;;;13.90;1.00;;;;;;7373925;19;20031;-71
2023/10/29 10:07:24;;;;;;;3.88;2.00;;;14.00;1.00;;;;;;7374326;19;20042;-71
2023/10/29 10:09:58;;;;;;;4.38;2.05;;;14.00;1.00;;;;;;7373189;19;20006;-71
2023/10/29 10:12:28;;;;;;;3.00;1.90;;;14.00;1.00;;;;;;7372960;19;20014;-71
2023/10/29 10:15:07;;;;;;;3.22;1.70;;;14.00;1.00;;;;;;7373196;19;20033;-71
2023/10/29 10:17:37;;;;;;;3.42;2.08;;;14.00;1.00;;;;;;7372706;19;20618;-71
2023/10/29 10:20:11;;;;;;;6.97;1.73;;;14.00;1.00;;;;;;7373199;19;20098;-72
2023/10/29 10:22:43;;;;;;;2.88;1.77;;;14.10;1.00;;;;;;7372370;19;20006;-72
2023/10/29 10:25:23;;;;;;;2.72;1.63;;;14.10;1.00;;;;;;7374595;19;20213;-72
2023/10/29 10:27:54;;;;;;;4.10;1.58;;;14.20;1.00;;;;;;7372575;19;20017;-71
2023/10/29 10:30:28;;;;;;;3.20;1.77;;;14.10;1.00;;;;;;7373117;19;20021;-71
2023/10/29 10:33:13;;;;;;;2.65;1.70;;;14.20;1.00;;;;;;7373705;19;20044;-71
2023/10/29 10:35:45;;;;;;;5.25;1.90;;;14.20;1.00;;;;;;7373248;19;20018;-72
2023/10/29 10:38:18;;;;;;;2.92;1.60;;;14.10;1.00;;;;;;7372981;19;20047;-71
2023/10/29 10:40:59;;;;;;;3.77;2.00;;;14.20;1.00;;;;;;7374432;19;20010;-72
2023/10/29 10:43:30;;;;;;;5.03;3.35;;;14.20;1.00;;;;;;7370908;19;20030;-72
2023/10/29 10:46:02;;;;;;;6.50;2.53;;;14.20;1.00;;;;;;7373163;19;20014;-71
2023/10/29 10:48:34;;;;;;;4.53;2.40;;;14.20;1.00;;;;;;7372010;19;20111;-71
2023/10/29 10:51:05;;;;;;;4.43;3.05;;;14.20;1.00;;;;;;7372673;19;20015;-70
2023/10/29 10:53:37;;;;;;;3.80;2.40;;;14.20;1.00;;;;;;7371200;19;20010;-71
2023/10/29 10:56:13;;;;;;;4.30;2.35;;;14.20;1.00;;;;;;7373361;19;20023;-71
2023/10/29 10:58:46;;;;;;;4.03;2.10;;;14.20;1.00;;;;;;7374454;19;20011;-71
2023/10/29 11:01:16;;;;;;;2.33;1.77;;;14.30;1.00;;;;;;7377934;19;20027;-71
2023/10/29 11:03:48;;;;;;;3.67;2.05;;;14.40;1.00;;;;;;7379055;19;20139;-72
2023/10/29 11:06:20;;;;;;;3.05;1.95;;;14.50;1.00;;;;;;7379620;19;20444;-72
2023/10/29 11:08:50;;;;;;;3.30;1.90;;;14.50;1.00;;;;;;7380239;19;20014;-71
2023/10/29 11:11:26;;;;;;;4.47;2.15;;;14.60;1.00;;;;;;7381420;19;20011;-72
2023/10/29 11:14:10;;;;;;;2.30;1.70;;;14.60;1.00;;;;;;7375751;19;20006;-71
2023/10/29 11:16:50;;;;;;;;;;;14.70;1.00;;;;;;7378833;19;20006;-71
2023/10/29 11:19:39;;;;;;;3.92;2.65;;;14.80;1.00;;;;;;7379355;19;20518;-70
2023/10/29 11:22:20;;;;;;;5.20;1.85;;;14.80;1.00;;;;;;6866597;19;2004578;-71
2023/10/29 11:25:20;;;;;;;4.18;2.30;;;14.90;1.00;;;;;;7382155;19;20502;-69
2023/10/29 11:27:53;;;;;;;2.70;1.60;;;15.00;1.00;;;;;;6869242;19;2004668;-71
2023/10/29 11:30:27;;;;;;;2.95;1.50;;;15.10;1.00;;;;;;7378785;19;20011;-70
2023/10/29 11:33:21;;;;;;;4.45;1.83;;;15.20;1.00;;;;;;7378191;19;20007;-70
2023/10/29 11:35:51;;;;;;;3.55;1.85;;;15.30;1.00;;;;;;7381314;19;20052;-69
2023/10/29 11:38:34;;;;;;;3.00;1.80;;;15.50;1.00;;;;;;7381502;19;20006;-69
2023/10/29 11:41:34;;;;;;;4.43;2.30;;;15.60;1.00;;;;;;6869872;19;2004835;-73
2023/10/29 11:44:27;;;;;;;3.65;2.50;;;15.70;1.00;;;;;;6870207;19;2004832;-71
2023/10/29 11:47:07;;;;;;;5.75;2.35;;;15.80;1.00;;;;;;7379943;19;20010;-70
2023/10/29 11:50:16;;;;;;;3.80;2.10;;;15.90;1.00;;;;;;7373569;19;20017;-71
2023/10/29 11:52:46;;;;;;;3.70;2.38;;;16.00;1.00;;;;;;6868910;19;2004998;-71
2023/10/29 11:55:17;;;;;;;3.08;2.05;;;16.10;1.00;;;;;;7379832;19;20797;-71
2023/10/29 11:57:50;;;;;;;4.70;2.03;;;16.10;1.00;;;;;;7380583;19;20052;-71
2023/10/29 12:00:24;;;;;;;2.80;1.80;;;16.30;1.00;;;;;;7381499;19;20021;-71
2023/10/29 12:02:54;;;;;;;2.85;1.50;;;16.40;1.00;;;;;;7376830;19;20006;-71
2023/10/29 12:05:21;;;;;;;2.17;1.48;;;16.40;1.00;;;;;;7381279;19;20136;-70
2023/10/29 12:08:00;;;;;;;2.53;1.50;;;16.60;1.00;;;;;;7381236;19;20011;-71
2023/10/29 12:10:31;;;;;;;4.88;1.80;;;17.00;1.00;;;;;;7376878;19;20381;-71
2023/10/29 12:13:01;;;;;;;1.95;1.55;;;17.40;1.00;;;;;;7379470;19;20014;-71
2023/10/29 12:15:33;;;;;;;2.40;1.30;;;17.60;1.00;;;;;;7379924;19;20018;-72
2023/10/29 12:18:03;;;;;;;4.45;1.50;;;17.60;1.00;;;;;;7380596;19;20030;-71
2023/10/29 12:20:33;;;;;;;2.75;1.30;;;17.90;1.00;;;;;;7379776;19;20010;-71
2023/10/29 12:23:04;;;;;;;2.55;1.70;;;17.90;1.00;;;;;;7378112;19;20021;-71
2023/10/29 12:25:35;;;;;;;2.30;1.23;;;17.90;1.00;;;;;;7379616;19;20086;-71
2023/10/29 12:28:06;;;;;;;2.35;1.40;;;18.00;1.00;;;;;;7379602;19;20027;-72
2023/10/29 12:30:39;;;;;;;1.67;1.30;;;18.00;1.00;;;;;;7380141;19;20006;-72
2023/10/29 12:33:20;;;;;;;3.30;1.20;;;18.20;1.00;;;;;;7378929;19;20018;-71
2023/10/29 12:35:51;;;;;;;3.30;1.23;;;18.30;1.00;;;;;;7378709;19;20039;-72
2023/10/29 12:38:23;;;;;;;3.90;1.40;;;18.30;1.00;;;;;;7379892;19;20031;-71
2023/10/29 12:41:09;;;;;;;6.00;1.80;;;18.40;1.00;;;;;;7380060;19;20035;-72
2023/10/29 12:43:41;;;;;;;3.95;1.40;;;18.30;1.00;;;;;;6867135;19;2005509;-71
2023/10/29 12:46:14;;;;;;;2.75;1.50;;;18.30;1.00;;;;;;7378616;19;20040;-71
2023/10/29 12:49:02;;;;;;;3.60;1.58;;;18.50;1.00;;;;;;7379868;19;20346;-71
2023/10/29 12:51:34;;;;;;;3.60;1.35;;;18.50;1.00;;;;;;7377001;19;20015;-71
2023/10/29 12:54:16;;;;;;;1.27;0.70;;;18.50;1.00;;;;;;7378193;19;20604;-71
2023/10/29 12:56:53;;;;;;;1.80;0.85;;;18.70;1.00;;;;;;7378604;19;20014;-71
2023/10/29 12:59:26;;;;;;;1.58;0.80;;;18.70;1.00;;;;;;7380420;19;20019;-72
2023/10/29 13:02:00;;;;;;;2.03;0.80;;;18.70;1.00;;;;;;7377804;19;20011;-70
2023/10/29 13:04:31;;;;;;;2.55;0.73;;;18.70;1.00;;;;;;7375458;19;20010;-73
2023/10/29 13:07:07;;;;;;;1.23;0.73;;;18.80;1.00;;;;;;7378204;19;20060;-70
2023/10/29 13:09:40;;;;;;;1.80;0.80;;;18.80;1.00;;;;;;7378719;19;20010;-71
2023/10/29 13:12:11;;;;;;;1.15;0.70;;;18.90;1.00;;;;;;7378785;19;20017;-72
2023/10/29 13:14:43;;;;;;;1.58;0.73;;;19.20;1.00;;;;;;7377423;19;20097;-71
2023/10/29 13:17:16;;;;;;;0.93;0.47;;;19.50;1.00;;;;;;7379380;19;20022;-72
2023/10/29 13:19:47;;;;;;;2.20;0.70;;;19.50;1.00;;;;;;7378158;19;20006;-72
2023/10/29 13:22:17;;;;;;;1.10;0.50;;;19.50;1.00;;;;;;7374077;19;20041;-71